sim
Sign-in with your pilot id or email,
or register
Callsign
Passwort

Schedule Details

Flight Number: DLH1903
Departure: Turin Caselle Airport (LIMF) at 05:10
Arrival: Munich Airport (EDDM) at 06:20
Route: Lufthansa Passenger Schedule. Enter filed route here before submitting Pirep.

Weather Information
Getting current METAR information for LIMF 191550Z VRB02KT 9999 BKN060 23/14 Q1018
Getting current METAR information for EDDM 191550Z 05003KT 020V080 CAVOK 21/12 Q1017 NOSIG

Schedule Frequency

Route Map